createdAt,value
2023-05-12T00:02:03.900Z,5.20
2023-05-12T00:04:31.980Z,4.78
2023-05-12T00:06:58.829Z,5.32
2023-05-12T00:09:26.397Z,5.40
2023-05-12T00:11:53.284Z,5.97
2023-05-12T00:14:23.892Z,5.43
2023-05-12T00:16:52.642Z,5.43
2023-05-12T00:19:20.378Z,5.03
2023-05-12T00:21:48.022Z,5.07
2023-05-12T00:24:17.954Z,5.45
2023-05-12T00:26:44.734Z,5.47
2023-05-12T00:29:11.933Z,5.45
2023-05-12T00:31:45.852Z,5.93
2023-05-12T00:34:12.664Z,5.53
2023-05-12T00:36:40.038Z,6.25
2023-05-12T00:39:07.402Z,6.22
2023-05-12T00:41:35.406Z,5.93
2023-05-12T00:44:02.149Z,5.35
2023-05-12T00:46:29.035Z,5.60
2023-05-12T00:48:58.136Z,5.85
2023-05-12T00:51:25.822Z,5.82
2023-05-12T00:53:52.722Z,6.10
2023-05-12T00:56:21.098Z,5.95
2023-05-12T00:58:47.988Z,5.25
2023-05-12T01:01:14.892Z,6.05
2023-05-12T01:03:42.070Z,6.05
2023-05-12T01:06:12.012Z,6.15
2023-05-12T01:08:39.299Z,7.07
2023-05-12T01:11:06.560Z,6.68
2023-05-12T01:13:33.346Z,6.13
2023-05-12T01:16:00.680Z,6.63
2023-05-12T01:18:27.664Z,6.68
2023-05-12T01:20:56.502Z,7.20
2023-05-12T01:23:29.204Z,6.75
2023-05-12T01:26:02.058Z,6.75
2023-05-12T01:28:28.853Z,7.38
2023-05-12T01:30:56.173Z,7.55
2023-05-12T01:33:23.634Z,8.38
2023-05-12T01:35:50.713Z,7.35
2023-05-12T01:38:17.434Z,6.68
2023-05-12T01:40:44.537Z,8.15
2023-05-12T01:43:11.350Z,8.90
2023-05-12T01:45:38.818Z,8.90
2023-05-12T01:48:06.044Z,9.00
2023-05-12T01:50:34.621Z,8.88
2023-05-12T01:53:01.386Z,9.02
2023-05-12T01:55:28.282Z,9.55
2023-05-12T01:57:56.257Z,8.93
2023-05-12T02:00:23.645Z,10.07
2023-05-12T02:02:50.653Z,11.18
2023-05-12T02:05:17.646Z,10.18
2023-05-12T02:07:44.558Z,10.98
2023-05-12T02:10:12.622Z,10.63
2023-05-12T02:12:39.434Z,10.85
2023-05-12T02:15:06.901Z,11.60
2023-05-12T02:17:33.666Z,11.05
2023-05-12T02:20:01.933Z,11.82
2023-05-12T02:22:28.738Z,11.75
2023-05-12T02:24:55.830Z,12.75
2023-05-12T02:27:23.224Z,14.82
2023-05-12T02:29:50.423Z,15.60
2023-05-12T02:32:18.391Z,16.77
2023-05-12T02:34:45.957Z,15.73
2023-05-12T02:37:12.786Z,16.38
2023-05-12T02:39:42.802Z,16.58
2023-05-12T02:42:09.686Z,14.75
2023-05-12T02:44:37.197Z,14.52
2023-05-12T02:47:04.304Z,14.10
2023-05-12T02:49:32.368Z,12.93
2023-05-12T02:52:00.254Z,12.93
2023-05-12T02:54:27.239Z,12.43
2023-05-12T02:56:54.784Z,12.35
2023-05-12T02:59:21.787Z,14.23
2023-05-12T03:01:48.821Z,15.35
2023-05-12T03:04:16.691Z,16.00
2023-05-12T03:06:44.289Z,16.23
2023-05-12T03:09:11.732Z,15.30
2023-05-12T03:11:38.536Z,17.40
2023-05-12T03:14:06.890Z,16.63
2023-05-12T03:16:34.865Z,16.13
2023-05-12T03:19:05.372Z,17.65
2023-05-12T03:21:35.469Z,17.88
2023-05-12T03:24:02.298Z,18.75
2023-05-12T03:26:30.714Z,18.88
2023-05-12T03:28:58.351Z,17.10
2023-05-12T03:31:26.088Z,19.33
2023-05-12T03:33:52.943Z,17.90
2023-05-12T03:36:23.543Z,19.25
2023-05-12T03:38:54.350Z,17.35
2023-05-12T03:41:22.203Z,18.33
2023-05-12T03:43:49.831Z,16.92
2023-05-12T03:46:17.169Z,17.27
2023-05-12T03:48:43.963Z,18.05
2023-05-12T03:51:11.112Z,16.42
2023-05-12T03:53:46.049Z,16.30
2023-05-12T03:56:12.783Z,15.68
2023-05-12T03:58:39.649Z,15.20
2023-05-12T04:01:07.042Z,14.55
2023-05-12T04:03:34.852Z,14.02
2023-05-12T04:06:12.587Z,12.63
2023-05-12T04:08:41.952Z,13.07
2023-05-12T04:11:15.050Z,13.25
2023-05-12T04:13:47.692Z,13.07
2023-05-12T04:16:14.634Z,12.30
2023-05-12T04:18:41.650Z,13.52
2023-05-12T04:21:09.639Z,13.90
2023-05-12T04:23:36.891Z,13.68
2023-05-12T04:26:09.138Z,14.55
2023-05-12T04:28:37.106Z,13.07
2023-05-12T04:31:06.457Z,14.68
2023-05-12T04:33:34.969Z,13.30
2023-05-12T04:36:02.123Z,12.52
2023-05-12T04:38:30.757Z,12.85
2023-05-12T04:41:03.149Z,12.80
2023-05-12T04:46:02.683Z,14.50
2023-05-12T04:48:29.534Z,13.07
2023-05-12T04:51:01.715Z,14.45
2023-05-12T04:53:34.839Z,12.65
2023-05-12T04:56:05.009Z,15.55
2023-05-12T04:58:33.181Z,13.00
2023-05-12T05:01:03.080Z,13.55
2023-05-12T05:03:29.997Z,13.55
2023-05-12T05:05:58.599Z,13.27
2023-05-12T05:08:27.043Z,12.43
2023-05-12T05:10:54.951Z,13.88
2023-05-12T05:13:22.510Z,11.68
2023-05-12T05:18:35.035Z,12.82
2023-05-12T05:21:02.494Z,13.25
2023-05-12T05:23:33.840Z,13.52
2023-05-12T05:26:10.273Z,12.05
2023-05-12T05:28:40.377Z,13.00
2023-05-12T05:31:08.841Z,12.38
2023-05-12T05:33:39.297Z,13.15
2023-05-12T05:36:06.661Z,13.57
2023-05-12T05:38:38.890Z,13.10
2023-05-12T05:41:24.354Z,12.97
2023-05-12T05:43:55.444Z,12.68
2023-05-12T05:46:28.133Z,11.95
2023-05-12T05:49:00.379Z,11.45
2023-05-12T05:51:51.647Z,13.07
2023-05-12T05:54:19.620Z,11.32
2023-05-12T05:56:49.758Z,10.82
2023-05-12T05:59:16.688Z,10.98
2023-05-12T06:01:46.939Z,11.90
2023-05-12T06:04:22.007Z,10.55
2023-05-12T06:06:49.880Z,10.20
2023-05-12T06:09:18.941Z,9.77
2023-05-12T06:11:46.806Z,9.10
2023-05-12T06:14:19.543Z,9.20
2023-05-12T06:16:48.996Z,8.88
2023-05-12T06:19:19.776Z,10.23
2023-05-12T06:21:49.429Z,7.82
2023-05-12T06:24:17.278Z,9.68
2023-05-12T06:26:44.420Z,9.98
2023-05-12T06:29:11.393Z,9.80
2023-05-12T06:31:38.181Z,9.48
2023-05-12T06:34:05.175Z,10.07
2023-05-12T06:36:33.478Z,10.20
2023-05-12T06:39:00.308Z,10.10
2023-05-12T06:41:29.112Z,9.25
2023-05-12T06:43:56.068Z,9.05
2023-05-12T06:46:22.909Z,9.27
2023-05-12T06:48:50.337Z,8.27
2023-05-12T06:51:18.611Z,8.20
2023-05-12T06:53:45.715Z,9.45
2023-05-12T06:56:16.948Z,8.88
2023-05-12T06:58:44.158Z,9.38
2023-05-12T07:01:12.629Z,7.65
2023-05-12T07:03:40.635Z,8.00
2023-05-12T07:06:07.711Z,7.78
2023-05-12T07:08:34.542Z,8.13
2023-05-12T07:11:02.701Z,8.75
2023-05-12T07:13:30.606Z,8.52
2023-05-12T07:15:57.392Z,8.35
2023-05-12T07:18:25.961Z,7.53
2023-05-12T07:20:53.797Z,8.73
2023-05-12T07:23:20.726Z,7.95
2023-05-12T07:25:47.583Z,9.45
2023-05-12T07:28:15.345Z,7.45
2023-05-12T07:30:42.352Z,8.00
2023-05-12T07:33:09.102Z,8.60
2023-05-12T07:35:36.471Z,7.18
2023-05-12T07:38:03.930Z,8.05
2023-05-12T07:40:33.858Z,7.15
2023-05-12T07:43:02.537Z,8.02
2023-05-12T07:45:30.776Z,7.80
2023-05-12T07:48:00.369Z,7.25
2023-05-12T07:50:27.513Z,7.25
2023-05-12T07:52:59.783Z,7.50
2023-05-12T07:55:28.916Z,7.80
2023-05-12T07:57:59.909Z,7.97
2023-05-12T08:00:27.243Z,6.97
2023-05-12T08:02:56.502Z,7.55
2023-05-12T08:05:33.745Z,7.15
2023-05-12T08:08:00.843Z,7.40
2023-05-12T08:10:30.917Z,6.55
2023-05-12T08:12:59.250Z,7.93
2023-05-12T08:15:27.734Z,7.63
2023-05-12T08:17:57.589Z,8.27
2023-05-12T08:20:25.708Z,8.18
2023-05-12T08:22:54.341Z,7.57
2023-05-12T08:25:24.113Z,7.82
2023-05-12T08:27:51.940Z,9.55
2023-05-12T08:30:18.885Z,9.18
2023-05-12T08:32:54.003Z,8.25
2023-05-12T08:35:26.172Z,8.95
2023-05-12T08:37:56.490Z,7.45
2023-05-12T08:40:24.457Z,7.68
2023-05-12T08:43:13.092Z,7.95
2023-05-12T08:45:43.207Z,7.72
2023-05-12T08:48:12.314Z,8.00
2023-05-12T08:50:39.268Z,6.97
2023-05-12T08:53:12.122Z,7.25
2023-05-12T08:56:01.386Z,8.52
2023-05-12T08:58:41.973Z,7.47
2023-05-12T09:01:09.868Z,7.47
2023-05-12T09:03:37.988Z,8.95
2023-05-12T09:06:05.837Z,7.72
2023-05-12T09:08:33.494Z,7.95
2023-05-12T09:11:01.037Z,7.38
2023-05-12T09:13:57.171Z,7.20
2023-05-12T09:16:31.691Z,6.70
2023-05-12T09:19:06.904Z,7.20
2023-05-12T09:21:34.694Z,8.15
2023-05-12T09:24:09.009Z,8.15
2023-05-12T09:26:54.658Z,8.70
2023-05-12T09:29:30.629Z,9.73
2023-05-12T09:32:01.057Z,11.10
2023-05-12T09:34:41.653Z,10.85
2023-05-12T09:37:08.720Z,9.95
2023-05-12T09:39:38.742Z,9.98
2023-05-12T09:45:15.645Z,8.90
2023-05-12T09:47:44.606Z,8.50
2023-05-12T09:50:16.906Z,8.77
2023-05-12T09:55:35.946Z,8.60
2023-05-12T10:03:34.653Z,10.45
2023-05-12T10:06:06.356Z,11.20
2023-05-12T10:08:43.163Z,11.13
2023-05-12T10:11:11.887Z,10.30
2023-05-12T10:13:44.702Z,11.18
2023-05-12T10:16:11.554Z,8.65
2023-05-12T10:18:38.521Z,9.95
2023-05-12T10:21:08.490Z,10.30
2023-05-12T10:23:37.811Z,10.40
2023-05-12T10:26:05.955Z,9.65
2023-05-12T10:28:32.805Z,9.05
2023-05-12T10:31:01.116Z,8.68
2023-05-12T10:33:28.401Z,9.57
2023-05-12T10:35:57.553Z,9.65
2023-05-12T10:38:26.705Z,8.52
2023-05-12T10:40:58.523Z,9.00
2023-05-12T10:43:45.157Z,8.32
2023-05-12T10:46:19.077Z,8.57
2023-05-12T10:49:08.010Z,9.15
2023-05-12T10:51:35.692Z,6.75
2023-05-12T10:54:06.920Z,7.93
2023-05-12T10:56:40.966Z,8.48
2023-05-12T10:59:26.062Z,8.73
2023-05-12T11:02:06.754Z,7.43
2023-05-12T11:04:48.299Z,7.65
2023-05-12T11:07:16.649Z,5.63
2023-05-12T11:12:17.328Z,8.07
2023-05-12T11:14:44.668Z,8.52
2023-05-12T11:17:15.183Z,7.93
2023-05-12T11:19:47.710Z,7.30
2023-05-12T11:22:18.487Z,8.48
2023-05-12T11:24:45.403Z,8.75
2023-05-12T11:27:13.516Z,8.38
2023-05-12T11:29:42.812Z,7.63
2023-05-12T11:32:12.577Z,8.57
2023-05-12T11:34:39.648Z,7.95
2023-05-12T11:37:11.142Z,7.03
2023-05-12T11:39:49.740Z,7.07
2023-05-12T11:42:19.825Z,6.53
2023-05-12T11:44:51.808Z,5.95
2023-05-12T11:47:20.054Z,6.03
2023-05-12T11:49:52.518Z,6.55
2023-05-12T11:52:24.918Z,5.68
2023-05-12T11:54:53.634Z,5.85
2023-05-12T11:57:34.264Z,6.35
2023-05-12T12:00:09.913Z,5.88
2023-05-12T12:02:41.277Z,5.25
2023-05-12T12:05:34.412Z,6.10
2023-05-12T12:08:31.988Z,6.47
2023-05-12T12:10:59.615Z,5.97
2023-05-12T12:13:27.274Z,6.50
2023-05-12T12:15:54.435Z,5.70
2023-05-12T12:18:25.193Z,6.10
2023-05-12T12:20:52.569Z,6.97
2023-05-12T12:23:19.466Z,7.57
2023-05-12T12:25:49.865Z,6.80
2023-05-12T12:28:17.420Z,7.03
2023-05-12T12:30:44.771Z,7.70
2023-05-12T12:33:13.261Z,6.75
2023-05-12T12:35:41.452Z,6.40
2023-05-12T12:38:08.902Z,6.03
2023-05-12T12:40:35.681Z,5.28
2023-05-12T12:43:02.797Z,6.22
2023-05-12T12:45:33.009Z,6.03
2023-05-12T12:48:09.181Z,6.20
2023-05-12T12:50:37.314Z,6.65
2023-05-12T12:53:04.795Z,7.57
2023-05-12T12:55:37.114Z,6.38
2023-05-12T12:58:03.915Z,8.00
2023-05-12T13:00:32.190Z,6.85
2023-05-12T13:03:02.377Z,5.07
2023-05-12T13:05:31.728Z,5.85
2023-05-12T13:07:59.630Z,5.63
2023-05-12T13:10:29.829Z,6.05
2023-05-12T13:12:58.486Z,5.68
2023-05-12T13:15:26.476Z,5.90
2023-05-12T13:17:54.582Z,6.43
2023-05-12T13:20:21.649Z,6.20
2023-05-12T13:22:51.826Z,6.68
2023-05-12T13:25:18.748Z,6.70
2023-05-12T13:27:46.213Z,6.07
2023-05-12T13:30:14.124Z,6.72
2023-05-12T13:32:42.554Z,6.68
2023-05-12T13:35:12.558Z,6.68
2023-05-12T13:37:39.395Z,7.43
2023-05-12T13:40:09.939Z,7.57
2023-05-12T13:42:37.111Z,7.35
2023-05-12T13:45:04.567Z,6.68
2023-05-12T13:47:31.467Z,7.50
2023-05-12T13:49:58.814Z,7.97
2023-05-12T13:52:25.698Z,7.00
2023-05-12T13:54:54.799Z,6.25
2023-05-12T13:57:30.484Z,6.95
2023-05-12T13:59:58.917Z,8.55
2023-05-12T14:02:26.109Z,7.50
2023-05-12T14:04:56.143Z,7.32
2023-05-12T14:07:26.016Z,7.63
2023-05-12T14:09:53.781Z,7.13
2023-05-12T14:12:23.460Z,7.30
2023-05-12T14:14:51.483Z,6.43
2023-05-12T14:17:19.811Z,7.22
2023-05-12T14:19:50.127Z,7.07
2023-05-12T14:22:26.579Z,7.63
2023-05-12T14:24:55.561Z,6.78
2023-05-12T14:27:22.534Z,7.55
2023-05-12T14:29:50.734Z,7.10
2023-05-12T14:32:18.735Z,6.97
2023-05-12T14:34:48.678Z,7.35
2023-05-12T14:37:21.262Z,7.30
2023-05-12T14:39:50.069Z,6.97
2023-05-12T14:42:18.241Z,7.05
2023-05-12T14:44:46.053Z,7.25
2023-05-12T14:47:12.866Z,12.77
2023-05-12T14:49:41.455Z,8.05
2023-05-12T14:52:10.213Z,7.93
2023-05-12T14:54:37.638Z,8.68
2023-05-12T14:57:08.175Z,10.07
2023-05-12T14:59:35.938Z,7.88
2023-05-12T15:02:10.111Z,7.18
2023-05-12T15:18:06.137Z,7.35
2023-05-12T15:20:42.274Z,6.60
2023-05-12T16:12:16.974Z,7.80
2023-05-12T16:22:54.644Z,8.27
2023-05-12T16:25:35.823Z,10.95
2023-05-12T16:28:18.707Z,7.07
2023-05-12T16:30:46.132Z,8.07
2023-05-12T16:33:15.130Z,7.20
2023-05-12T16:35:48.639Z,7.70
2023-05-12T16:38:21.387Z,14.20
2023-05-12T16:43:39.582Z,9.32
2023-05-12T16:46:19.906Z,7.20
2023-05-12T16:48:48.724Z,7.63
2023-05-12T16:51:23.969Z,7.15
2023-05-12T16:53:54.127Z,5.68
2023-05-12T16:56:25.140Z,9.20
2023-05-12T17:10:52.405Z,7.78
2023-05-12T17:13:19.810Z,7.50
2023-05-12T17:15:47.997Z,6.88
2023-05-12T17:18:20.464Z,7.97
2023-05-12T17:20:49.005Z,7.95
2023-05-12T17:23:20.342Z,9.45
2023-05-12T17:25:54.798Z,11.25
2023-05-12T17:28:36.044Z,6.32
2023-05-12T17:31:16.322Z,6.22
2023-05-12T17:45:44.863Z,6.90
2023-05-12T18:05:43.436Z,11.23
2023-05-12T18:08:10.241Z,11.45
2023-05-12T18:10:46.977Z,12.60
2023-05-12T18:15:56.929Z,12.13
2023-05-12T18:18:30.163Z,11.73
2023-05-12T18:21:01.777Z,12.00
2023-05-12T18:26:16.181Z,12.80
2023-05-12T18:31:30.493Z,12.68
2023-05-12T18:34:05.703Z,12.40
2023-05-12T18:36:38.668Z,13.85
2023-05-12T18:47:32.705Z,14.95
2023-05-12T18:50:08.686Z,13.02
2023-05-12T18:55:21.230Z,12.88
2023-05-12T18:57:57.360Z,12.23
2023-05-12T19:00:30.436Z,11.23
2023-05-12T19:05:29.389Z,10.93
2023-05-12T19:13:28.202Z,11.32
2023-05-12T19:21:25.369Z,11.30
2023-05-12T19:24:06.038Z,11.38
2023-05-12T19:26:37.760Z,11.00
2023-05-12T19:34:48.198Z,9.63
2023-05-12T19:37:19.705Z,11.32
2023-05-12T19:39:49.755Z,13.57
2023-05-12T20:07:03.436Z,13.90
2023-05-12T20:09:33.379Z,13.77
2023-05-12T20:14:59.765Z,14.05
2023-05-12T20:26:14.232Z,15.70
2023-05-12T20:28:51.389Z,13.57
2023-05-12T20:31:29.457Z,13.15
2023-05-12T20:33:58.231Z,13.00
2023-05-12T20:36:26.992Z,13.55
2023-05-12T20:39:00.372Z,12.05
2023-05-12T20:41:37.235Z,13.18
2023-05-12T20:44:12.398Z,14.02
2023-05-12T20:49:25.000Z,14.23
2023-05-12T21:00:34.897Z,15.38
2023-05-12T21:16:34.956Z,17.08
2023-05-12T21:19:02.072Z,16.73
2023-05-12T21:21:32.332Z,16.95
2023-05-12T21:23:59.204Z,17.42
2023-05-12T21:26:31.011Z,17.63
2023-05-12T21:29:17.005Z,15.43
2023-05-12T21:34:39.359Z,16.38
2023-05-12T21:37:29.212Z,17.15
2023-05-12T21:42:41.228Z,15.13
2023-05-12T21:45:23.143Z,15.68
2023-05-12T21:50:34.988Z,15.50
2023-05-12T21:53:12.094Z,15.00
2023-05-12T21:56:09.238Z,13.20
2023-05-12T21:58:41.598Z,13.60
2023-05-12T22:01:13.394Z,13.50
2023-05-12T22:03:40.407Z,13.38
2023-05-12T22:06:09.168Z,14.20
2023-05-12T22:08:37.290Z,13.68
2023-05-12T22:11:05.764Z,13.73
2023-05-12T22:13:35.522Z,13.27
2023-05-12T22:16:03.545Z,12.38
2023-05-12T22:18:33.325Z,14.85
2023-05-12T22:21:02.033Z,14.73
2023-05-12T22:26:11.045Z,13.55
2023-05-12T22:28:39.407Z,13.80
2023-05-12T22:31:07.476Z,14.20
2023-05-12T22:33:36.168Z,15.07
2023-05-12T22:36:06.188Z,14.00
2023-05-12T22:38:37.209Z,13.45
2023-05-12T22:41:05.965Z,14.23
2023-05-12T22:43:34.267Z,14.45
2023-05-12T22:46:02.229Z,13.27
2023-05-12T22:48:30.606Z,12.95
2023-05-12T22:51:03.713Z,12.93
2023-05-12T22:53:33.647Z,12.35
2023-05-12T22:56:03.683Z,13.07
2023-05-12T22:58:30.663Z,13.10
2023-05-12T23:01:01.772Z,13.82
2023-05-12T23:03:32.521Z,14.38
2023-05-12T23:06:00.175Z,14.85
2023-05-12T23:08:33.159Z,14.13
2023-05-12T23:11:01.299Z,14.00
2023-05-12T23:13:29.754Z,13.95
2023-05-12T23:16:00.166Z,14.90
2023-05-12T23:18:28.296Z,14.48
2023-05-12T23:20:55.466Z,15.05
2023-05-12T23:23:23.394Z,13.75
2023-05-12T23:25:50.149Z,14.40
2023-05-12T23:28:17.078Z,13.63
2023-05-12T23:30:44.413Z,13.90
2023-05-12T23:33:12.651Z,14.02
2023-05-12T23:35:45.248Z,14.13
2023-05-12T23:38:12.091Z,14.15
2023-05-12T23:40:40.333Z,13.73
2023-05-12T23:43:09.802Z,13.40
2023-05-12T23:45:36.642Z,13.90
2023-05-12T23:48:03.574Z,14.75
2023-05-12T23:50:32.247Z,13.30
2023-05-12T23:52:59.101Z,15.27
2023-05-12T23:55:31.604Z,14.52
2023-05-12T23:58:00.009Z,14.70
